sensor_id;sensor_type;location;lat;lon;timestamp;temperature;humidity
35746;DHT22;21870;42.812;74.628;2022-08-18T00:01:47;19.00;93.50
35746;DHT22;21870;42.812;74.628;2022-08-18T00:04:14;18.90;93.40
35746;DHT22;21870;42.812;74.628;2022-08-18T00:06:41;18.90;94.20
35746;DHT22;21870;42.812;74.628;2022-08-18T00:09:08;18.80;92.10
35746;DHT22;21870;42.812;74.628;2022-08-18T00:11:40;18.80;90.70
35746;DHT22;21870;42.812;74.628;2022-08-18T00:14:07;18.80;90.50
35746;DHT22;21870;42.812;74.628;2022-08-18T00:16:33;18.80;90.10
35746;DHT22;21870;42.812;74.628;2022-08-18T00:19:00;18.70;90.00
35746;DHT22;21870;42.812;74.628;2022-08-18T00:21:26;18.60;90.10
35746;DHT22;21870;42.812;74.628;2022-08-18T00:23:55;18.60;90.00
35746;DHT22;21870;42.812;74.628;2022-08-18T00:26:21;18.50;90.10
35746;DHT22;21870;42.812;74.628;2022-08-18T00:28:47;18.50;90.10
35746;DHT22;21870;42.812;74.628;2022-08-18T00:31:13;18.50;90.20
35746;DHT22;21870;42.812;74.628;2022-08-18T00:33:39;18.40;90.40
35746;DHT22;21870;42.812;74.628;2022-08-18T00:36:05;18.50;90.20
35746;DHT22;21870;42.812;74.628;2022-08-18T00:38:31;18.50;89.90
35746;DHT22;21870;42.812;74.628;2022-08-18T00:40:57;18.60;89.80
35746;DHT22;21870;42.812;74.628;2022-08-18T00:43:49;18.60;89.80
35746;DHT22;21870;42.812;74.628;2022-08-18T00:46:22;18.70;90.20
35746;DHT22;21870;42.812;74.628;2022-08-18T00:48:49;18.70;90.40
35746;DHT22;21870;42.812;74.628;2022-08-18T00:51:37;18.80;90.30
35746;DHT22;21870;42.812;74.628;2022-08-18T00:54:18;18.90;90.40
35746;DHT22;21870;42.812;74.628;2022-08-18T00:56:48;19.00;90.90
35746;DHT22;21870;42.812;74.628;2022-08-18T00:59:25;19.00;91.00
35746;DHT22;21870;42.812;74.628;2022-08-18T01:01:55;19.10;91.20
35746;DHT22;21870;42.812;74.628;2022-08-18T01:07:21;19.30;92.70
35746;DHT22;21870;42.812;74.628;2022-08-18T01:09:50;19.30;92.40
35746;DHT22;21870;42.812;74.628;2022-08-18T01:12:17;19.40;93.80
35746;DHT22;21870;42.812;74.628;2022-08-18T01:14:44;19.40;95.00
35746;DHT22;21870;42.812;74.628;2022-08-18T01:17:12;19.50;94.30
35746;DHT22;21870;42.812;74.628;2022-08-18T01:19:57;19.60;94.80
35746;DHT22;21870;42.812;74.628;2022-08-18T01:25:16;19.90;93.90
35746;DHT22;21870;42.812;74.628;2022-08-18T01:28:02;20.10;93.20
35746;DHT22;21870;42.812;74.628;2022-08-18T01:30:29;20.20;93.30
35746;DHT22;21870;42.812;74.628;2022-08-18T01:32:57;20.40;93.40
35746;DHT22;21870;42.812;74.628;2022-08-18T01:35:25;20.50;93.10
35746;DHT22;21870;42.812;74.628;2022-08-18T01:37:52;20.60;93.20
35746;DHT22;21870;42.812;74.628;2022-08-18T01:40:22;20.80;92.70
35746;DHT22;21870;42.812;74.628;2022-08-18T01:42:48;21.10;93.30
35746;DHT22;21870;42.812;74.628;2022-08-18T01:45:17;21.20;93.20
35746;DHT22;21870;42.812;74.628;2022-08-18T01:47:45;21.30;92.40
35746;DHT22;21870;42.812;74.628;2022-08-18T01:50:11;21.40;91.70
35746;DHT22;21870;42.812;74.628;2022-08-18T01:52:38;21.60;92.10
35746;DHT22;21870;42.812;74.628;2022-08-18T01:55:05;21.70;90.90
35746;DHT22;21870;42.812;74.628;2022-08-18T01:57:34;21.80;90.20
35746;DHT22;21870;42.812;74.628;2022-08-18T02:00:00;22.00;90.10
35746;DHT22;21870;42.812;74.628;2022-08-18T02:02:29;22.20;90.20
35746;DHT22;21870;42.812;74.628;2022-08-18T02:05:03;22.30;90.50
35746;DHT22;21870;42.812;74.628;2022-08-18T02:07:30;22.40;90.60
35746;DHT22;21870;42.812;74.628;2022-08-18T02:09:56;22.50;90.60
35746;DHT22;21870;42.812;74.628;2022-08-18T02:12:22;22.50;91.60
35746;DHT22;21870;42.812;74.628;2022-08-18T02:14:48;22.70;91.60
35746;DHT22;21870;42.812;74.628;2022-08-18T02:17:16;22.80;92.00
35746;DHT22;21870;42.812;74.628;2022-08-18T02:19:45;22.80;91.20
35746;DHT22;21870;42.812;74.628;2022-08-18T02:22:14;23.00;91.10
35746;DHT22;21870;42.812;74.628;2022-08-18T02:24:41;23.00;91.00
35746;DHT22;21870;42.812;74.628;2022-08-18T02:27:08;23.10;91.10
35746;DHT22;21870;42.812;74.628;2022-08-18T02:29:35;23.10;91.20
35746;DHT22;21870;42.812;74.628;2022-08-18T02:32:02;23.10;90.90
35746;DHT22;21870;42.812;74.628;2022-08-18T02:34:28;23.20;90.70
35746;DHT22;21870;42.812;74.628;2022-08-18T02:36:54;23.10;90.30
35746;DHT22;21870;42.812;74.628;2022-08-18T02:39:20;23.30;89.70
35746;DHT22;21870;42.812;74.628;2022-08-18T02:41:46;23.30;89.90
35746;DHT22;21870;42.812;74.628;2022-08-18T02:44:13;23.40;90.00
35746;DHT22;21870;42.812;74.628;2022-08-18T02:46:39;23.40;89.30
35746;DHT22;21870;42.812;74.628;2022-08-18T02:49:06;23.40;88.40
35746;DHT22;21870;42.812;74.628;2022-08-18T02:51:32;23.50;89.20
35746;DHT22;21870;42.812;74.628;2022-08-18T02:53:58;23.60;89.60
35746;DHT22;21870;42.812;74.628;2022-08-18T02:56:30;23.80;88.80
35746;DHT22;21870;42.812;74.628;2022-08-18T02:59:02;23.90;88.80
35746;DHT22;21870;42.812;74.628;2022-08-18T03:01:34;24.00;88.90
35746;DHT22;21870;42.812;74.628;2022-08-18T03:04:02;24.20;86.30
35746;DHT22;21870;42.812;74.628;2022-08-18T03:06:30;24.30;85.90
35746;DHT22;21870;42.812;74.628;2022-08-18T03:08:57;24.40;86.70
35746;DHT22;21870;42.812;74.628;2022-08-18T03:11:25;24.40;85.40
35746;DHT22;21870;42.812;74.628;2022-08-18T03:13:52;24.30;84.30
35746;DHT22;21870;42.812;74.628;2022-08-18T03:16:19;24.30;84.90
35746;DHT22;21870;42.812;74.628;2022-08-18T03:18:46;24.40;85.50
35746;DHT22;21870;42.812;74.628;2022-08-18T03:21:17;24.40;84.20
35746;DHT22;21870;42.812;74.628;2022-08-18T03:23:45;24.60;83.40
35746;DHT22;21870;42.812;74.628;2022-08-18T03:26:13;24.90;83.60
35746;DHT22;21870;42.812;74.628;2022-08-18T03:28:46;25.10;85.20
35746;DHT22;21870;42.812;74.628;2022-08-18T03:31:13;25.20;83.40
35746;DHT22;21870;42.812;74.628;2022-08-18T03:33:40;25.40;84.70
35746;DHT22;21870;42.812;74.628;2022-08-18T03:36:16;25.40;83.10
35746;DHT22;21870;42.812;74.628;2022-08-18T03:38:43;25.40;82.50
35746;DHT22;21870;42.812;74.628;2022-08-18T03:41:12;25.50;80.80
35746;DHT22;21870;42.812;74.628;2022-08-18T03:43:39;25.60;82.00
35746;DHT22;21870;42.812;74.628;2022-08-18T03:46:08;25.70;80.40
35746;DHT22;21870;42.812;74.628;2022-08-18T03:48:36;25.90;78.40
35746;DHT22;21870;42.812;74.628;2022-08-18T03:51:26;26.00;78.30
35746;DHT22;21870;42.812;74.628;2022-08-18T03:53:55;26.10;77.90
35746;DHT22;21870;42.812;74.628;2022-08-18T03:56:26;26.30;81.30
35746;DHT22;21870;42.812;74.628;2022-08-18T03:58:59;26.30;76.70
35746;DHT22;21870;42.812;74.628;2022-08-18T04:01:29;26.50;79.90
35746;DHT22;21870;42.812;74.628;2022-08-18T04:03:59;26.70;79.00
35746;DHT22;21870;42.812;74.628;2022-08-18T04:06:42;26.80;78.20
35746;DHT22;21870;42.812;74.628;2022-08-18T04:09:12;27.00;77.90
35746;DHT22;21870;42.812;74.628;2022-08-18T04:11:43;26.90;77.80
35746;DHT22;21870;42.812;74.628;2022-08-18T04:14:11;27.00;77.40
35746;DHT22;21870;42.812;74.628;2022-08-18T04:16:37;27.20;74.80
35746;DHT22;21870;42.812;74.628;2022-08-18T04:19:05;27.30;75.60
35746;DHT22;21870;42.812;74.628;2022-08-18T04:21:34;27.30;75.10
35746;DHT22;21870;42.812;74.628;2022-08-18T04:24:01;27.40;74.30
35746;DHT22;21870;42.812;74.628;2022-08-18T04:26:37;27.50;75.60
35746;DHT22;21870;42.812;74.628;2022-08-18T04:29:04;27.60;74.30
35746;DHT22;21870;42.812;74.628;2022-08-18T04:31:31;27.80;75.70
35746;DHT22;21870;42.812;74.628;2022-08-18T04:37:19;27.90;75.10
35746;DHT22;21870;42.812;74.628;2022-08-18T04:39:45;28.00;76.00
35746;DHT22;21870;42.812;74.628;2022-08-18T04:42:11;28.00;74.70
35746;DHT22;21870;42.812;74.628;2022-08-18T04:44:37;28.30;75.20
35746;DHT22;21870;42.812;74.628;2022-08-18T04:47:04;28.40;74.60
35746;DHT22;21870;42.812;74.628;2022-08-18T04:49:32;28.50;77.30
35746;DHT22;21870;42.812;74.628;2022-08-18T04:51:58;28.50;72.70
35746;DHT22;21870;42.812;74.628;2022-08-18T04:54:43;28.50;72.70
35746;DHT22;21870;42.812;74.628;2022-08-18T04:57:16;28.60;75.20
35746;DHT22;21870;42.812;74.628;2022-08-18T04:59:45;28.80;74.50
35746;DHT22;21870;42.812;74.628;2022-08-18T05:02:13;29.10;74.30
35746;DHT22;21870;42.812;74.628;2022-08-18T05:04:41;29.20;73.30
35746;DHT22;21870;42.812;74.628;2022-08-18T05:07:14;29.30;73.50
35746;DHT22;21870;42.812;74.628;2022-08-18T05:09:40;29.30;71.50
35746;DHT22;21870;42.812;74.628;2022-08-18T05:12:08;29.30;72.90
35746;DHT22;21870;42.812;74.628;2022-08-18T05:14:37;29.40;73.20
35746;DHT22;21870;42.812;74.628;2022-08-18T05:17:04;29.30;72.30
35746;DHT22;21870;42.812;74.628;2022-08-18T05:19:30;29.30;73.40
35746;DHT22;21870;42.812;74.628;2022-08-18T05:21:58;29.40;73.80
35746;DHT22;21870;42.812;74.628;2022-08-18T05:24:25;29.40;74.60
35746;DHT22;21870;42.812;74.628;2022-08-18T05:26:53;29.40;74.00
35746;DHT22;21870;42.812;74.628;2022-08-18T05:29:20;29.40;72.60
35746;DHT22;21870;42.812;74.628;2022-08-18T05:31:51;29.40;72.80
35746;DHT22;21870;42.812;74.628;2022-08-18T05:34:19;29.40;73.30
35746;DHT22;21870;42.812;74.628;2022-08-18T05:36:56;29.60;75.30
35746;DHT22;21870;42.812;74.628;2022-08-18T05:39:37;29.50;72.50
35746;DHT22;21870;42.812;74.628;2022-08-18T05:42:11;29.50;71.20
35746;DHT22;21870;42.812;74.628;2022-08-18T05:44:45;29.40;72.10
35746;DHT22;21870;42.812;74.628;2022-08-18T05:49:46;29.70;72.90
35746;DHT22;21870;42.812;74.628;2022-08-18T05:55:19;29.70;72.20
35746;DHT22;21870;42.812;74.628;2022-08-18T05:58:18;29.60;71.20
35746;DHT22;21870;42.812;74.628;2022-08-18T06:00:50;29.70;70.80
35746;DHT22;21870;42.812;74.628;2022-08-18T06:03:25;29.60;71.00
35746;DHT22;21870;42.812;74.628;2022-08-18T06:05:55;29.70;70.50
35746;DHT22;21870;42.812;74.628;2022-08-18T06:08:32;29.70;70.30
35746;DHT22;21870;42.812;74.628;2022-08-18T06:11:01;30.00;72.20
35746;DHT22;21870;42.812;74.628;2022-08-18T06:13:27;30.10;71.30
35746;DHT22;21870;42.812;74.628;2022-08-18T06:23:54;30.10;70.70
35746;DHT22;21870;42.812;74.628;2022-08-18T06:26:53;29.90;71.30
35746;DHT22;21870;42.812;74.628;2022-08-18T06:32:17;30.20;71.50
35746;DHT22;21870;42.812;74.628;2022-08-18T06:40:37;29.80;70.90
35746;DHT22;21870;42.812;74.628;2022-08-18T06:43:10;29.90;69.80
35746;DHT22;21870;42.812;74.628;2022-08-18T06:45:39;30.00;69.30
35746;DHT22;21870;42.812;74.628;2022-08-18T06:50:53;30.10;73.10
35746;DHT22;21870;42.812;74.628;2022-08-18T06:53:21;30.20;71.90
35746;DHT22;21870;42.812;74.628;2022-08-18T06:55:48;30.20;72.60
35746;DHT22;21870;42.812;74.628;2022-08-18T07:01:04;30.50;72.90
35746;DHT22;21870;42.812;74.628;2022-08-18T07:08:54;30.20;71.10
35746;DHT22;21870;42.812;74.628;2022-08-18T07:13:48;30.50;71.20
35746;DHT22;21870;42.812;74.628;2022-08-18T07:16:31;30.60;71.00
35746;DHT22;21870;42.812;74.628;2022-08-18T07:19:12;30.60;71.10
35746;DHT22;21870;42.812;74.628;2022-08-18T07:21:42;30.80;70.80
35746;DHT22;21870;42.812;74.628;2022-08-18T07:29:57;31.20;69.40
35746;DHT22;21870;42.812;74.628;2022-08-18T07:32:28;31.30;70.10
35746;DHT22;21870;42.812;74.628;2022-08-18T07:34:57;31.30;68.40
35746;DHT22;21870;42.812;74.628;2022-08-18T07:37:43;31.20;69.20
35746;DHT22;21870;42.812;74.628;2022-08-18T07:43:11;30.90;68.80
35746;DHT22;21870;42.812;74.628;2022-08-18T07:45:43;31.10;70.40
35746;DHT22;21870;42.812;74.628;2022-08-18T07:48:20;31.00;68.90
35746;DHT22;21870;42.812;74.628;2022-08-18T07:56:40;31.40;69.20
35746;DHT22;21870;42.812;74.628;2022-08-18T07:59:39;31.40;69.50
35746;DHT22;21870;42.812;74.628;2022-08-18T08:07:40;31.60;69.50
35746;DHT22;21870;42.812;74.628;2022-08-18T08:10:29;31.80;68.20
35746;DHT22;21870;42.812;74.628;2022-08-18T08:13:18;31.90;68.70
35746;DHT22;21870;42.812;74.628;2022-08-18T08:16:31;32.00;67.10
35746;DHT22;21870;42.812;74.628;2022-08-18T08:22:07;31.90;67.10
35746;DHT22;21870;42.812;74.628;2022-08-18T08:27:16;32.20;66.20
35746;DHT22;21870;42.812;74.628;2022-08-18T08:29:50;32.10;65.50
35746;DHT22;21870;42.812;74.628;2022-08-18T08:35:33;32.20;65.90
35746;DHT22;21870;42.812;74.628;2022-08-18T08:38:20;32.30;66.10
35746;DHT22;21870;42.812;74.628;2022-08-18T08:41:04;32.50;65.80
35746;DHT22;21870;42.812;74.628;2022-08-18T08:43:41;32.50;66.90
35746;DHT22;21870;42.812;74.628;2022-08-18T08:51:54;32.80;67.60
35746;DHT22;21870;42.812;74.628;2022-08-18T08:54:45;32.70;67.00
35746;DHT22;21870;42.812;74.628;2022-08-18T08:57:13;32.70;66.70
35746;DHT22;21870;42.812;74.628;2022-08-18T08:59:43;32.90;66.90
35746;DHT22;21870;42.812;74.628;2022-08-18T09:05:10;33.10;67.50
35746;DHT22;21870;42.812;74.628;2022-08-18T09:19:55;32.80;65.30
35746;DHT22;21870;42.812;74.628;2022-08-18T09:28:22;32.60;65.90
35746;DHT22;21870;42.812;74.628;2022-08-18T09:42:02;32.80;66.30
35746;DHT22;21870;42.812;74.628;2022-08-18T09:47:11;32.60;65.30
35746;DHT22;21870;42.812;74.628;2022-08-18T09:49:41;32.70;65.80
35746;DHT22;21870;42.812;74.628;2022-08-18T09:57:29;32.80;65.80
35746;DHT22;21870;42.812;74.628;2022-08-18T10:07:47;32.40;65.60
35746;DHT22;21870;42.812;74.628;2022-08-18T10:13:54;32.50;66.20
35746;DHT22;21870;42.812;74.628;2022-08-18T10:16:12;32.60;65.60
35746;DHT22;21870;42.812;74.628;2022-08-18T10:21:24;32.40;66.30
35746;DHT22;21870;42.812;74.628;2022-08-18T10:29:07;32.50;66.30
35746;DHT22;21870;42.812;74.628;2022-08-18T10:45:35;32.70;66.10
35746;DHT22;21870;42.812;74.628;2022-08-18T10:48:18;32.40;66.80
35746;DHT22;21870;42.812;74.628;2022-08-18T10:50:55;32.40;65.40
35746;DHT22;21870;42.812;74.628;2022-08-18T10:59:22;32.20;65.30
35746;DHT22;21870;42.812;74.628;2022-08-18T11:02:07;31.90;66.20
35746;DHT22;21870;42.812;74.628;2022-08-18T11:04:45;31.90;66.90
35746;DHT22;21870;42.812;74.628;2022-08-18T11:07:13;31.90;66.40
35746;DHT22;21870;42.812;74.628;2022-08-18T11:09:49;31.70;66.80
35746;DHT22;21870;42.812;74.628;2022-08-18T11:12:50;31.50;67.00
35746;DHT22;21870;42.812;74.628;2022-08-18T11:15:37;31.30;69.20
35746;DHT22;21870;42.812;74.628;2022-08-18T11:18:18;31.50;68.50
35746;DHT22;21870;42.812;74.628;2022-08-18T11:20:45;31.60;66.70
35746;DHT22;21870;42.812;74.628;2022-08-18T11:23:14;31.60;66.30
35746;DHT22;21870;42.812;74.628;2022-08-18T11:25:41;31.50;66.80
35746;DHT22;21870;42.812;74.628;2022-08-18T11:28:19;31.40;66.50
35746;DHT22;21870;42.812;74.628;2022-08-18T11:30:52;31.20;66.30
35746;DHT22;21870;42.812;74.628;2022-08-18T11:33:21;30.80;67.10
35746;DHT22;21870;42.812;74.628;2022-08-18T11:35:57;30.50;67.30
35746;DHT22;21870;42.812;74.628;2022-08-18T11:38:26;30.40;68.20
35746;DHT22;21870;42.812;74.628;2022-08-18T11:41:19;30.50;66.50
35746;DHT22;21870;42.812;74.628;2022-08-18T11:43:58;30.50;67.50
35746;DHT22;21870;42.812;74.628;2022-08-18T11:46:34;30.30;67.50
35746;DHT22;21870;42.812;74.628;2022-08-18T11:49:30;30.10;67.90
35746;DHT22;21870;42.812;74.628;2022-08-18T11:52:18;29.80;68.70
35746;DHT22;21870;42.812;74.628;2022-08-18T11:54:47;29.70;68.90
35746;DHT22;21870;42.812;74.628;2022-08-18T11:57:42;29.70;68.50
35746;DHT22;21870;42.812;74.628;2022-08-18T12:03:36;29.50;69.10
35746;DHT22;21870;42.812;74.628;2022-08-18T12:06:27;29.50;68.40
35746;DHT22;21870;42.812;74.628;2022-08-18T12:09:04;29.50;68.00
35746;DHT22;21870;42.812;74.628;2022-08-18T12:11:34;29.40;67.90
35746;DHT22;21870;42.812;74.628;2022-08-18T12:14:06;29.20;67.80
35746;DHT22;21870;42.812;74.628;2022-08-18T12:16:41;29.20;68.40
35746;DHT22;21870;42.812;74.628;2022-08-18T12:19:10;29.20;69.10
35746;DHT22;21870;42.812;74.628;2022-08-18T12:21:45;29.10;69.10
35746;DHT22;21870;42.812;74.628;2022-08-18T12:24:25;29.00;69.20
35746;DHT22;21870;42.812;74.628;2022-08-18T12:26:51;28.80;68.70
35746;DHT22;21870;42.812;74.628;2022-08-18T12:29:18;28.80;68.50
35746;DHT22;21870;42.812;74.628;2022-08-18T12:31:45;28.70;68.20
35746;DHT22;21870;42.812;74.628;2022-08-18T12:34:12;28.60;68.20
35746;DHT22;21870;42.812;74.628;2022-08-18T12:36:38;28.60;69.10
35746;DHT22;21870;42.812;74.628;2022-08-18T12:39:04;28.50;69.20
35746;DHT22;21870;42.812;74.628;2022-08-18T12:41:31;28.50;68.30
35746;DHT22;21870;42.812;74.628;2022-08-18T12:43:57;28.40;67.90
35746;DHT22;21870;42.812;74.628;2022-08-18T12:46:23;28.40;67.60
35746;DHT22;21870;42.812;74.628;2022-08-18T12:48:49;28.30;67.80
35746;DHT22;21870;42.812;74.628;2022-08-18T12:51:15;28.30;68.60
35746;DHT22;21870;42.812;74.628;2022-08-18T12:53:41;28.30;68.50
35746;DHT22;21870;42.812;74.628;2022-08-18T12:56:24;28.40;68.00
35746;DHT22;21870;42.812;74.628;2022-08-18T12:58:52;28.30;68.30
35746;DHT22;21870;42.812;74.628;2022-08-18T13:01:19;28.30;68.50
35746;DHT22;21870;42.812;74.628;2022-08-18T13:03:51;28.20;68.50
35746;DHT22;21870;42.812;74.628;2022-08-18T13:06:18;28.10;68.90
35746;DHT22;21870;42.812;74.628;2022-08-18T13:08:45;28.00;69.40
35746;DHT22;21870;42.812;74.628;2022-08-18T13:11:11;27.90;69.90
35746;DHT22;21870;42.812;74.628;2022-08-18T13:13:38;27.80;70.30
35746;DHT22;21870;42.812;74.628;2022-08-18T13:16:08;27.80;71.10
35746;DHT22;21870;42.812;74.628;2022-08-18T13:18:35;27.80;71.00
35746;DHT22;21870;42.812;74.628;2022-08-18T13:21:02;27.80;71.20
35746;DHT22;21870;42.812;74.628;2022-08-18T13:23:29;27.70;70.70
35746;DHT22;21870;42.812;74.628;2022-08-18T13:25:59;27.60;70.40
35746;DHT22;21870;42.812;74.628;2022-08-18T13:28:25;27.60;70.50
35746;DHT22;21870;42.812;74.628;2022-08-18T13:30:51;27.50;70.60
35746;DHT22;21870;42.812;74.628;2022-08-18T13:33:18;27.50;70.20
35746;DHT22;21870;42.812;74.628;2022-08-18T13:35:45;27.40;70.30
35746;DHT22;21870;42.812;74.628;2022-08-18T13:38:12;27.40;69.70
35746;DHT22;21870;42.812;74.628;2022-08-18T13:40:39;27.30;70.00
35746;DHT22;21870;42.812;74.628;2022-08-18T13:43:05;27.20;70.20
35746;DHT22;21870;42.812;74.628;2022-08-18T13:45:33;27.20;70.00
35746;DHT22;21870;42.812;74.628;2022-08-18T13:47:59;27.10;70.40
35746;DHT22;21870;42.812;74.628;2022-08-18T13:50:25;27.00;71.60
35746;DHT22;21870;42.812;74.628;2022-08-18T13:52:51;27.00;72.80
35746;DHT22;21870;42.812;74.628;2022-08-18T13:55:19;27.00;73.50
35746;DHT22;21870;42.812;74.628;2022-08-18T13:57:46;27.00;72.50
35746;DHT22;21870;42.812;74.628;2022-08-18T14:00:17;26.90;73.50
35746;DHT22;21870;42.812;74.628;2022-08-18T14:02:49;26.80;71.50
35746;DHT22;21870;42.812;74.628;2022-08-18T14:05:19;26.80;71.40
35746;DHT22;21870;42.812;74.628;2022-08-18T14:07:46;26.70;71.40
35746;DHT22;21870;42.812;74.628;2022-08-18T14:10:13;26.50;71.50
35746;DHT22;21870;42.812;74.628;2022-08-18T14:12:41;26.40;71.50
35746;DHT22;21870;42.812;74.628;2022-08-18T14:15:10;26.20;71.90
35746;DHT22;21870;42.812;74.628;2022-08-18T14:17:36;26.00;71.90
35746;DHT22;21870;42.812;74.628;2022-08-18T14:20:03;25.90;72.10
35746;DHT22;21870;42.812;74.628;2022-08-18T14:22:51;25.80;72.30
35746;DHT22;21870;42.812;74.628;2022-08-18T14:25:36;25.70;72.40
35746;DHT22;21870;42.812;74.628;2022-08-18T14:28:20;25.70;72.30
35746;DHT22;21870;42.812;74.628;2022-08-18T14:30:47;25.60;72.40
35746;DHT22;21870;42.812;74.628;2022-08-18T14:33:18;25.60;72.50
35746;DHT22;21870;42.812;74.628;2022-08-18T14:35:45;25.50;72.60
35746;DHT22;21870;42.812;74.628;2022-08-18T14:38:12;25.40;72.70
35746;DHT22;21870;42.812;74.628;2022-08-18T14:40:41;25.30;73.20
35746;DHT22;21870;42.812;74.628;2022-08-18T14:43:07;25.20;73.50
35746;DHT22;21870;42.812;74.628;2022-08-18T14:45:33;25.10;74.10
35746;DHT22;21870;42.812;74.628;2022-08-18T14:48:00;25.00;74.50
35746;DHT22;21870;42.812;74.628;2022-08-18T14:50:27;25.00;75.60
35746;DHT22;21870;42.812;74.628;2022-08-18T14:52:54;24.90;76.20
35746;DHT22;21870;42.812;74.628;2022-08-18T14:55:20;24.80;76.20
35746;DHT22;21870;42.812;74.628;2022-08-18T14:57:46;24.70;76.30
35746;DHT22;21870;42.812;74.628;2022-08-18T15:00:15;24.70;76.20
35746;DHT22;21870;42.812;74.628;2022-08-18T15:02:44;24.60;75.90
35746;DHT22;21870;42.812;74.628;2022-08-18T15:05:11;24.60;75.80
35746;DHT22;21870;42.812;74.628;2022-08-18T15:07:38;24.60;75.80
35746;DHT22;21870;42.812;74.628;2022-08-18T15:10:06;24.50;75.80
35746;DHT22;21870;42.812;74.628;2022-08-18T15:12:33;24.40;76.00
35746;DHT22;21870;42.812;74.628;2022-08-18T15:15:00;24.30;76.10
35746;DHT22;21870;42.812;74.628;2022-08-18T15:17:26;24.30;76.00
35746;DHT22;21870;42.812;74.628;2022-08-18T15:19:53;24.30;76.00
35746;DHT22;21870;42.812;74.628;2022-08-18T15:22:20;24.20;76.40
35746;DHT22;21870;42.812;74.628;2022-08-18T15:25:06;23.90;76.70
35746;DHT22;21870;42.812;74.628;2022-08-18T15:27:51;23.70;77.50
35746;DHT22;21870;42.812;74.628;2022-08-18T15:30:19;23.50;78.40
35746;DHT22;21870;42.812;74.628;2022-08-18T15:32:46;23.30;79.10
35746;DHT22;21870;42.812;74.628;2022-08-18T15:35:13;23.10;79.70
35746;DHT22;21870;42.812;74.628;2022-08-18T15:37:41;23.00;80.30
35746;DHT22;21870;42.812;74.628;2022-08-18T15:40:12;22.90;80.80
35746;DHT22;21870;42.812;74.628;2022-08-18T15:42:44;22.80;81.30
35746;DHT22;21870;42.812;74.628;2022-08-18T15:45:12;22.60;81.50
35746;DHT22;21870;42.812;74.628;2022-08-18T15:47:41;22.60;81.60
35746;DHT22;21870;42.812;74.628;2022-08-18T15:50:10;22.50;81.50
35746;DHT22;21870;42.812;74.628;2022-08-18T15:52:37;22.60;81.50
35746;DHT22;21870;42.812;74.628;2022-08-18T15:55:09;22.60;81.40
35746;DHT22;21870;42.812;74.628;2022-08-18T15:57:35;22.70;81.20
35746;DHT22;21870;42.812;74.628;2022-08-18T16:00:02;22.80;81.30
35746;DHT22;21870;42.812;74.628;2022-08-18T16:02:29;22.80;80.90
35746;DHT22;21870;42.812;74.628;2022-08-18T16:04:55;22.90;80.80
35746;DHT22;21870;42.812;74.628;2022-08-18T16:07:21;23.00;80.00
35746;DHT22;21870;42.812;74.628;2022-08-18T16:09:47;23.10;80.20
35746;DHT22;21870;42.812;74.628;2022-08-18T16:12:14;23.20;80.40
35746;DHT22;21870;42.812;74.628;2022-08-18T16:14:40;23.30;79.90
35746;DHT22;21870;42.812;74.628;2022-08-18T16:17:06;23.30;80.10
35746;DHT22;21870;42.812;74.628;2022-08-18T16:19:32;23.20;79.80
35746;DHT22;21870;42.812;74.628;2022-08-18T16:21:58;23.10;80.30
35746;DHT22;21870;42.812;74.628;2022-08-18T16:24:24;23.00;80.30
35746;DHT22;21870;42.812;74.628;2022-08-18T16:26:50;22.90;80.70
35746;DHT22;21870;42.812;74.628;2022-08-18T16:29:17;22.90;80.80
35746;DHT22;21870;42.812;74.628;2022-08-18T16:31:43;22.90;80.20
35746;DHT22;21870;42.812;74.628;2022-08-18T16:34:10;23.00;80.30
35746;DHT22;21870;42.812;74.628;2022-08-18T16:36:38;23.00;80.10
35746;DHT22;21870;42.812;74.628;2022-08-18T16:39:04;23.00;80.20
35746;DHT22;21870;42.812;74.628;2022-08-18T16:41:30;22.90;80.40
35746;DHT22;21870;42.812;74.628;2022-08-18T16:43:57;22.90;80.70
35746;DHT22;21870;42.812;74.628;2022-08-18T16:46:24;22.80;80.80
35746;DHT22;21870;42.812;74.628;2022-08-18T16:48:53;22.70;81.00
35746;DHT22;21870;42.812;74.628;2022-08-18T16:51:21;22.60;80.90
35746;DHT22;21870;42.812;74.628;2022-08-18T16:53:49;22.60;80.60
35746;DHT22;21870;42.812;74.628;2022-08-18T16:56:19;22.50;80.50
35746;DHT22;21870;42.812;74.628;2022-08-18T16:58:45;22.50;81.20
35746;DHT22;21870;42.812;74.628;2022-08-18T17:01:31;22.40;80.70
35746;DHT22;21870;42.812;74.628;2022-08-18T17:04:19;22.30;81.00
35746;DHT22;21870;42.812;74.628;2022-08-18T17:06:45;22.20;80.90
35746;DHT22;21870;42.812;74.628;2022-08-18T17:09:11;22.10;81.10
35746;DHT22;21870;42.812;74.628;2022-08-18T17:11:38;22.10;81.30
35746;DHT22;21870;42.812;74.628;2022-08-18T17:14:06;22.10;81.90
35746;DHT22;21870;42.812;74.628;2022-08-18T17:16:34;22.00;82.00
35746;DHT22;21870;42.812;74.628;2022-08-18T17:19:01;21.90;82.30
35746;DHT22;21870;42.812;74.628;2022-08-18T17:21:29;21.80;82.50
35746;DHT22;21870;42.812;74.628;2022-08-18T17:23:57;21.80;83.00
35746;DHT22;21870;42.812;74.628;2022-08-18T17:26:39;21.70;83.10
35746;DHT22;21870;42.812;74.628;2022-08-18T17:29:27;21.60;83.40
35746;DHT22;21870;42.812;74.628;2022-08-18T17:32:00;21.60;83.60
35746;DHT22;21870;42.812;74.628;2022-08-18T17:34:34;21.60;83.80
35746;DHT22;21870;42.812;74.628;2022-08-18T17:37:02;21.50;84.00
35746;DHT22;21870;42.812;74.628;2022-08-18T17:39:37;21.40;84.10
35746;DHT22;21870;42.812;74.628;2022-08-18T17:42:05;21.40;84.20
35746;DHT22;21870;42.812;74.628;2022-08-18T17:44:51;21.40;84.20
35746;DHT22;21870;42.812;74.628;2022-08-18T17:47:24;21.40;83.90
35746;DHT22;21870;42.812;74.628;2022-08-18T17:49:51;21.40;83.60
35746;DHT22;21870;42.812;74.628;2022-08-18T17:52:43;21.40;83.60
35746;DHT22;21870;42.812;74.628;2022-08-18T17:55:59;21.50;83.50
35746;DHT22;21870;42.812;74.628;2022-08-18T17:58:51;21.40;83.20
35746;DHT22;21870;42.812;74.628;2022-08-18T18:01:21;21.50;82.80
35746;DHT22;21870;42.812;74.628;2022-08-18T18:03:47;21.60;82.60
35746;DHT22;21870;42.812;74.628;2022-08-18T18:06:35;21.60;82.40
35746;DHT22;21870;42.812;74.628;2022-08-18T18:09:27;21.50;82.70
35746;DHT22;21870;42.812;74.628;2022-08-18T18:11:53;21.40;83.40
35746;DHT22;21870;42.812;74.628;2022-08-18T18:17:16;21.10;84.70
35746;DHT22;21870;42.812;74.628;2022-08-18T18:19:45;21.00;85.20
35746;DHT22;21870;42.812;74.628;2022-08-18T18:22:28;21.00;85.10
35746;DHT22;21870;42.812;74.628;2022-08-18T18:24:59;21.00;84.70